Time;durP1;ratioP1;P1;durP2;ratioP2;P2;SDS_P1;SDS_P2;PMS_P1;PMS_P2;Temp;Humidity;BMP_temperature;BMP_pressure;BME280_temperature;BME280_humidity;BME280_pressure;Samples;Min_cycle;Max_cycle;Signal;HPM_P1;HPM_P2
2021/03/24 00:01:26;;;;;;;65.80;43.10;;;5.60;88.60;;;;;;5032865;28;20197;-86
2021/03/24 00:03:54;;;;;;;65.93;41.13;;;5.80;87.90;;;;;;5033163;28;20265;-88
2021/03/24 00:06:23;;;;;;;67.13;42.30;;;5.80;87.40;;;;;;5033091;28;20188;-86
2021/03/24 00:08:49;;;;;;;70.53;41.20;;;5.90;86.80;;;;;;5031934;28;20181;-87
2021/03/24 00:11:15;;;;;;;65.23;41.70;;;6.00;86.50;;;;;;5031939;28;20226;-87
2021/03/24 00:13:42;;;;;;;63.67;41.67;;;5.90;86.60;;;;;;5032773;28;20180;-87
2021/03/24 00:16:19;;;;;;;71.67;42.60;;;6.00;86.50;;;;;;5031555;28;20523;-86
2021/03/24 00:18:45;;;;;;;70.10;40.03;;;6.00;86.40;;;;;;5031792;28;20182;-86
2021/03/24 00:21:11;;;;;;;66.63;41.07;;;6.10;86.10;;;;;;5031612;28;20193;-86
2021/03/24 00:23:37;;;;;;;64.80;39.80;;;6.10;85.90;;;;;;5031886;28;20174;-86
2021/03/24 00:26:04;;;;;;;58.47;39.50;;;6.20;85.60;;;;;;5032954;28;20180;-87
2021/03/24 00:28:30;;;;;;;64.17;41.23;;;6.20;85.40;;;;;;5034368;28;20186;-86
2021/03/24 00:31:01;;;;;;;63.20;41.13;;;6.20;85.40;;;;;;5036997;28;20187;-86
2021/03/24 00:33:34;;;;;;;73.23;43.20;;;6.20;85.50;;;;;;5034991;28;20183;-86
2021/03/24 00:36:00;;;;;;;63.83;42.33;;;6.20;85.60;;;;;;5036149;28;20254;-85
2021/03/24 00:38:32;;;;;;;63.50;42.20;;;6.10;85.70;;;;;;5034767;28;20292;-86
2021/03/24 00:41:02;;;;;;;60.87;41.43;;;6.20;85.50;;;;;;5036077;28;20177;-86
2021/03/24 00:43:28;;;;;;;66.23;42.67;;;6.20;85.60;;;;;;5036114;28;20633;-85
2021/03/24 00:46:00;;;;;;;69.40;40.43;;;6.20;85.50;;;;;;5036046;28;20210;-86
2021/03/24 00:48:33;;;;;;;63.97;40.53;;;6.20;85.40;;;;;;5034706;28;20634;-86
2021/03/24 00:51:05;;;;;;;61.77;41.67;;;6.30;85.00;;;;;;5034678;28;20575;-87
2021/03/24 00:53:35;;;;;;;63.50;41.97;;;6.30;84.70;;;;;;5035877;28;20186;-85
2021/03/24 00:56:04;;;;;;;66.00;41.73;;;6.30;84.70;;;;;;5035833;28;20185;-85
2021/03/24 00:58:33;;;;;;;66.23;41.33;;;6.30;85.20;;;;;;5034595;28;20276;-86
2021/03/24 01:01:00;;;;;;;68.83;43.87;;;6.30;85.30;;;;;;5034370;28;20575;-86
2021/03/24 01:03:27;;;;;;;74.47;43.83;;;6.30;85.50;;;;;;5034689;28;20563;-86
2021/03/24 01:05:55;;;;;;;68.30;42.57;;;6.30;85.40;;;;;;5034492;28;20182;-86
2021/03/24 01:08:28;;;;;;;69.50;43.53;;;6.30;85.50;;;;;;5034408;28;20192;-86
2021/03/24 01:10:56;;;;;;;67.27;43.37;;;6.30;85.40;;;;;;5036017;28;20186;-86
2021/03/24 01:13:31;;;;;;;68.03;42.23;;;6.40;85.10;;;;;;5034389;28;20256;-86
2021/03/24 01:16:04;;;;;;;67.97;42.93;;;6.40;85.00;;;;;;5034523;28;20188;-86
2021/03/24 01:18:34;;;;;;;70.43;41.47;;;6.50;84.70;;;;;;5036051;28;20240;-86
2021/03/24 01:21:08;;;;;;;67.23;42.63;;;6.50;84.80;;;;;;5034073;28;20784;-86
2021/03/24 01:23:40;;;;;;;70.10;40.50;;;6.50;85.00;;;;;;5035371;28;20179;-86
2021/03/24 01:26:09;;;;;;;69.03;42.90;;;6.50;85.00;;;;;;5034025;28;20180;-86
2021/03/24 01:28:37;;;;;;;65.77;42.53;;;6.50;84.30;;;;;;5034293;28;20233;-86
2021/03/24 01:31:10;;;;;;;65.00;42.57;;;6.60;84.20;;;;;;5035120;28;20609;-87
2021/03/24 01:33:44;;;;;;;69.60;44.80;;;6.50;84.30;;;;;;5033997;28;20189;-86
2021/03/24 01:36:10;;;;;;;80.67;47.83;;;6.50;84.60;;;;;;5033739;28;20202;-85
2021/03/24 01:38:42;;;;;;;70.17;45.37;;;6.50;84.70;;;;;;5033326;28;20186;-85
2021/03/24 01:41:08;;;;;;;72.70;45.27;;;6.50;84.70;;;;;;5035021;28;20187;-85
2021/03/24 01:43:41;;;;;;;64.47;43.90;;;6.50;84.80;;;;;;5033898;28;20190;-85
2021/03/24 01:46:24;;;;;;;61.50;42.27;;;6.50;84.80;;;;;;5033751;28;20184;-85
2021/03/24 01:49:00;;;;;;;66.33;39.53;;;6.50;84.70;;;;;;5033644;28;20652;-85
2021/03/24 01:51:32;;;;;;;66.30;42.60;;;6.50;84.70;;;;;;5034664;28;20198;-85
2021/03/24 01:54:04;;;;;;;61.50;40.33;;;6.50;84.70;;;;;;5034926;28;20179;-85
2021/03/24 01:56:31;;;;;;;67.23;42.90;;;6.50;84.50;;;;;;5034641;28;20649;-85
2021/03/24 01:59:02;;;;;;;63.50;41.33;;;6.60;84.00;;;;;;5033481;28;20558;-85
2021/03/24 02:01:37;;;;;;;64.10;41.00;;;6.60;84.10;;;;;;5033399;28;20222;-85
2021/03/24 02:04:10;;;;;;;68.93;42.20;;;6.60;84.00;;;;;;5034880;28;20168;-86
2021/03/24 02:07:03;;;;;;;67.20;43.03;;;6.60;84.20;;;;;;5033318;28;20182;-85
2021/03/24 02:09:49;;;;;;;65.60;43.27;;;6.50;84.40;;;;;;5033205;28;20187;-85
2021/03/24 02:12:26;;;;;;;66.27;43.03;;;6.50;84.60;;;;;;5033658;28;20663;-85
2021/03/24 02:15:18;;;;;;;75.03;44.07;;;6.60;84.50;;;;;;5033194;28;20189;-85
2021/03/24 02:17:54;;;;;;;69.50;43.37;;;6.50;84.70;;;;;;5032995;28;20199;-85
2021/03/24 02:20:28;;;;;;;70.23;44.13;;;6.50;84.90;;;;;;5033022;28;20167;-85
2021/03/24 02:23:11;;;;;;;65.57;40.43;;;6.60;84.50;;;;;;5032953;28;20201;-85
2021/03/24 02:25:51;;;;;;;63.50;41.80;;;6.50;84.20;;;;;;5034138;28;20661;-85
2021/03/24 02:28:32;;;;;;;62.13;40.30;;;6.60;84.00;;;;;;5032851;28;20196;-85
2021/03/24 02:31:04;;;;;;;66.00;38.70;;;6.60;83.30;;;;;;5034151;28;20228;-85
2021/03/24 02:33:37;;;;;;;61.73;40.23;;;6.60;83.50;;;;;;5034103;28;20162;-85
2021/03/24 02:36:11;;;;;;;70.00;40.70;;;6.60;83.80;;;;;;5032886;28;20178;-85
2021/03/24 02:38:49;;;;;;;66.13;40.77;;;6.60;83.70;;;;;;5032612;28;20192;-85
2021/03/24 02:41:21;;;;;;;62.73;40.37;;;6.60;83.80;;;;;;5032630;28;20528;-85
2021/03/24 02:43:51;;;;;;;59.83;37.97;;;6.60;83.40;;;;;;5033879;28;20262;-85
2021/03/24 02:46:18;;;;;;;63.53;40.70;;;6.60;83.00;;;;;;5032620;28;20179;-86
2021/03/24 02:48:57;;;;;;;63.47;42.33;;;6.60;83.10;;;;;;5033838;28;20259;-86
2021/03/24 02:51:29;;;;;;;65.00;41.00;;;6.50;83.50;;;;;;5032761;28;20190;-85
2021/03/24 02:54:01;;;;;;;59.77;40.27;;;6.60;83.60;;;;;;5032413;28;20179;-85
2021/03/24 02:56:33;;;;;;;64.53;39.83;;;6.50;83.70;;;;;;5033526;28;20711;-85
2021/03/24 02:59:00;;;;;;;65.53;40.53;;;6.50;84.00;;;;;;5032512;28;20608;-85
2021/03/24 03:01:52;;;;;;;60.80;40.23;;;6.50;84.00;;;;;;5032116;28;20703;-85
2021/03/24 03:04:37;;;;;;;59.17;39.40;;;6.50;84.10;;;;;;5032188;28;20191;-85
2021/03/24 03:07:08;;;;;;;65.40;41.23;;;6.50;84.00;;;;;;5032276;28;20180;-85
2021/03/24 03:09:43;;;;;;;68.40;42.27;;;6.40;84.30;;;;;;5032173;28;20171;-85
2021/03/24 03:12:20;;;;;;;62.80;40.60;;;6.50;84.50;;;;;;5033287;28;20196;-85
2021/03/24 03:15:00;;;;;;;68.03;43.90;;;6.40;84.80;;;;;;5033432;28;20647;-85
2021/03/24 03:17:53;;;;;;;69.40;43.07;;;6.40;85.00;;;;;;5032034;28;20205;-85
2021/03/24 03:20:32;;;;;;;71.40;44.50;;;6.40;85.10;;;;;;5032148;28;20216;-85
2021/03/24 03:23:09;;;;;;;68.70;43.27;;;6.40;85.20;;;;;;5033325;28;20197;-85
2021/03/24 03:25:43;;;;;;;70.53;44.57;;;6.40;85.00;;;;;;5032599;28;20588;-85
2021/03/24 03:28:17;;;;;;;72.13;43.77;;;6.40;85.00;;;;;;5033238;28;20178;-85
2021/03/24 03:30:56;;;;;;;66.40;36.87;;;6.40;85.10;;;;;;5031999;28;20183;-85
2021/03/24 03:33:31;;;;;;;63.87;39.60;;;6.50;84.00;;;;;;5032027;28;20709;-85
2021/03/24 03:36:04;;;;;;;58.77;38.30;;;6.50;83.40;;;;;;5031971;28;20187;-85
2021/03/24 03:38:36;;;;;;;63.63;40.80;;;6.50;83.20;;;;;;5033096;28;20194;-85
2021/03/24 03:41:10;;;;;;;66.20;40.53;;;6.50;83.00;;;;;;5033006;28;20669;-86
2021/03/24 03:43:45;;;;;;;59.87;40.10;;;6.50;83.40;;;;;;5031750;28;20178;-85
2021/03/24 03:46:18;;;;;;;66.70;39.77;;;6.40;83.70;;;;;;5032996;28;20166;-85
2021/03/24 03:48:54;;;;;;;57.03;37.30;;;6.50;83.00;;;;;;5031831;28;20180;-85
2021/03/24 03:52:17;;;;;;;53.13;32.93;;;6.50;82.90;;;;;;5031729;28;20221;-85
2021/03/24 03:54:59;;;;;;;54.07;34.60;;;6.50;82.60;;;;;;5011264;28;20230;-85
2021/03/24 03:57:49;;;;;;;50.87;31.60;;;6.40;82.70;;;;;;5028918;28;20215;-85
2021/03/24 04:00:30;;;;;;;39.03;27.50;;;6.60;80.90;;;;;;5031748;28;20603;-85
2021/03/24 04:03:12;;;;;;;35.30;25.03;;;6.60;80.20;;;;;;5033637;28;20304;-85
2021/03/24 04:05:52;;;;;;;42.03;26.93;;;6.60;80.10;;;;;;5037137;28;20194;-85
2021/03/24 04:08:29;;;;;;;35.33;25.17;;;6.50;80.00;;;;;;5036958;28;20172;-85
2021/03/24 04:10:59;;;;;;;33.90;24.47;;;6.50;80.00;;;;;;5035752;28;20184;-85
2021/03/24 04:13:28;;;;;;;30.83;20.97;;;6.50;79.70;;;;;;5035373;28;20189;-85
2021/03/24 04:16:05;;;;;;;27.93;21.97;;;6.50;79.20;;;;;;5035373;28;20183;-85
2021/03/24 04:18:49;;;;;;;33.80;25.57;;;6.60;79.30;;;;;;5035344;28;20270;-85
2021/03/24 04:21:19;;;;;;;41.20;27.80;;;6.50;80.10;;;;;;5036413;28;20183;-85
2021/03/24 04:24:06;;;;;;;44.87;30.33;;;6.50;81.20;;;;;;5036855;28;20168;-85
2021/03/24 04:26:44;;;;;;;40.50;27.93;;;6.40;81.70;;;;;;5036434;28;20202;-85
2021/03/24 04:29:24;;;;;;;40.07;26.10;;;6.50;81.10;;;;;;5036432;28;20646;-85
2021/03/24 04:31:59;;;;;;;44.00;28.63;;;6.50;80.20;;;;;;5036496;28;20278;-85
2021/03/24 04:34:30;;;;;;;41.67;26.57;;;6.50;80.10;;;;;;5035216;28;20248;-85
2021/03/24 04:37:28;;;;;;;37.27;26.50;;;6.50;80.60;;;;;;5034862;28;20238;-85
2021/03/24 04:40:06;;;;;;;39.60;26.67;;;6.50;80.90;;;;;;5036209;28;20233;-85
2021/03/24 04:42:53;;;;;;;35.03;25.20;;;6.40;80.90;;;;;;5034782;28;20205;-86
2021/03/24 04:45:29;;;;;;;35.53;24.60;;;6.40;80.60;;;;;;5036140;28;20198;-85
2021/03/24 04:47:58;;;;;;;36.37;24.50;;;6.40;80.60;;;;;;5036358;28;20166;-85
2021/03/24 04:50:30;;;;;;;35.17;23.77;;;6.30;81.00;;;;;;5035897;28;20231;-85
2021/03/24 04:53:07;;;;;;;32.23;22.57;;;6.30;81.10;;;;;;5034665;28;20292;-85
2021/03/24 04:55:37;;;;;;;32.97;22.77;;;6.30;80.40;;;;;;5034672;28;20180;-85
2021/03/24 04:58:05;;;;;;;34.33;23.37;;;6.30;81.00;;;;;;5034514;28;20578;-85
2021/03/24 05:00:50;;;;;;;40.23;25.40;;;6.30;81.50;;;;;;5035092;28;20542;-85
2021/03/24 05:03:24;;;;;;;38.93;26.60;;;6.30;81.80;;;;;;5035574;28;20683;-85
2021/03/24 05:06:00;;;;;;;38.27;26.33;;;6.30;82.00;;;;;;5035737;28;20163;-85
2021/03/24 05:08:46;;;;;;;40.10;26.27;;;6.30;82.40;;;;;;5034439;28;20686;-85
2021/03/24 05:11:27;;;;;;;51.17;34.70;;;6.20;83.00;;;;;;5035168;28;20178;-85
2021/03/24 05:14:10;;;;;;;63.07;36.53;;;6.30;83.20;;;;;;5033489;28;20566;-85
2021/03/24 05:16:43;;;;;;;58.10;37.40;;;6.30;83.80;;;;;;5034648;28;20173;-85
2021/03/24 05:19:44;;;;;;;55.93;36.50;;;6.30;83.80;;;;;;5035581;28;20648;-85
2021/03/24 05:22:24;;;;;;;61.57;38.57;;;6.30;83.80;;;;;;5027360;28;20294;-85
2021/03/24 05:25:15;;;;;;;60.67;37.80;;;6.30;84.00;;;;;;5034094;28;20232;-85
2021/03/24 05:27:59;;;;;;;64.13;39.30;;;6.30;84.20;;;;;;5034107;28;20170;-85
2021/03/24 05:30:30;;;;;;;73.13;43.10;;;6.20;85.20;;;;;;5034102;28;20186;-85
2021/03/24 05:33:13;;;;;;;86.23;49.03;;;6.10;85.60;;;;;;5033947;28;20318;-85
2021/03/24 05:36:00;;;;;;;80.27;49.13;;;6.00;85.80;;;;;;5035129;28;20193;-85
2021/03/24 05:38:44;;;;;;;86.17;48.63;;;6.00;86.30;;;;;;5033765;28;20259;-85
2021/03/24 05:41:37;;;;;;;93.40;53.87;;;6.00;86.70;;;;;;5033888;28;20176;-85
2021/03/24 05:44:26;;;;;;;95.90;52.23;;;5.90;86.90;;;;;;5034611;28;20188;-85
2021/03/24 05:47:28;;;;;;;80.93;47.50;;;6.00;86.90;;;;;;5033646;28;20212;-85
2021/03/24 05:50:14;;;;;;;85.57;52.67;;;6.00;86.80;;;;;;5034990;28;20545;-85
2021/03/24 05:53:01;;;;;;;85.40;51.40;;;6.00;86.80;;;;;;5033630;28;20198;-85
2021/03/24 05:56:03;;;;;;;84.50;50.80;;;6.00;86.80;;;;;;5033610;28;20169;-85
2021/03/24 05:58:54;;;;;;;87.13;49.77;;;6.00;86.60;;;;;;5033531;28;20201;-85
2021/03/24 06:01:54;;;;;;;81.37;51.33;;;6.10;86.60;;;;;;5033098;28;20198;-85
2021/03/24 06:04:37;;;;;;;84.77;51.20;;;6.00;86.50;;;;;;5034536;28;20197;-85
2021/03/24 06:07:28;;;;;;;87.40;51.73;;;6.10;86.60;;;;;;5034662;28;20182;-85
2021/03/24 06:10:23;;;;;;;83.37;49.47;;;6.10;86.60;;;;;;5033173;28;20187;-85
2021/03/24 06:13:00;;;;;;;81.17;48.53;;;6.10;86.60;;;;;;5034457;28;20578;-85
2021/03/24 06:16:07;;;;;;;88.23;49.17;;;6.10;86.80;;;;;;5056628;23;20167;-83
2021/03/24 06:18:55;;;;;;;87.97;49.40;;;6.10;87.10;;;;;;5023714;28;20232;-83
2021/03/24 06:21:47;;;;;;;88.50;49.97;;;6.10;87.10;;;;;;5037145;28;20183;-82
2021/03/24 06:24:30;;;;;;;92.73;51.70;;;6.10;87.20;;;;;;5037089;28;20268;-81
2021/03/24 06:27:48;;;;;;;90.20;54.20;;;6.10;87.10;;;;;;5054970;28;20196;-82
2021/03/24 06:30:39;;;;;;;89.57;52.60;;;6.10;87.30;;;;;;5020701;28;20648;-82
2021/03/24 06:33:34;;;;;;;92.83;51.47;;;6.20;87.20;;;;;;5036967;28;20340;-82
2021/03/24 06:36:41;;;;;;;86.73;53.17;;;6.20;87.40;;;;;;5054636;28;20188;-82
2021/03/24 06:39:49;;;;;;;89.97;51.20;;;6.30;87.20;;;;;;5054750;28;20264;-82
2021/03/24 06:42:34;;;;;;;86.77;49.63;;;6.30;87.40;;;;;;5054880;28;20222;-83
2021/03/24 06:45:26;;;;;;;90.77;53.07;;;6.30;87.30;;;;;;5037433;28;20730;-83
2021/03/24 06:48:17;;;;;;;81.47;47.97;;;6.30;87.10;;;;;;5037442;28;20176;-83
2021/03/24 06:51:14;;;;;;;86.83;49.47;;;6.30;87.10;;;;;;5036875;28;20181;-82
2021/03/24 06:53:58;;;;;;;85.10;46.03;;;6.30;87.30;;;;;;5036159;28;20183;-82
2021/03/24 06:57:22;;;;;;;82.10;46.77;;;6.40;86.90;;;;;;5054251;28;20188;-82
2021/03/24 07:00:23;;;;;;;81.73;49.67;;;6.40;86.70;;;;;;4973479;28;20176;-82
2021/03/24 07:02:52;;;;;;;82.87;48.80;;;6.50;86.30;;;;;;4957206;28;20258;-82
2021/03/24 07:05:47;;;;;;;81.40;47.90;;;6.50;86.20;;;;;;5032576;28;20264;-82
2021/03/24 07:08:42;;;;;;;74.50;44.97;;;6.50;86.20;;;;;;5054201;28;20533;-82
2021/03/24 07:11:33;;;;;;;78.83;46.23;;;6.60;86.10;;;;;;5053922;28;20173;-82
2021/03/24 07:14:19;;;;;;;75.87;44.13;;;6.60;85.90;;;;;;5036823;28;20665;-82
2021/03/24 07:17:14;;;;;;;79.27;47.70;;;6.70;86.30;;;;;;5037245;28;20590;-82
2021/03/24 07:20:12;;;;;;;84.57;49.03;;;6.70;85.80;;;;;;5036659;28;20173;-82
2021/03/24 07:23:04;;;;;;;88.70;50.60;;;6.80;85.70;;;;;;5054771;28;20217;-82
2021/03/24 07:25:53;;;;;;;84.90;48.97;;;6.80;85.70;;;;;;5054498;28;20159;-82
2021/03/24 07:28:59;;;;;;;79.80;48.67;;;6.90;85.70;;;;;;5054238;28;20179;-82
2021/03/24 07:31:34;;;;;;;87.77;51.30;;;7.00;85.90;;;;;;5055661;28;20177;-83
2021/03/24 07:34:38;;;;;;;87.87;51.73;;;7.10;85.70;;;;;;5036620;28;20163;-83
2021/03/24 07:37:26;;;;;;;80.77;44.67;;;7.20;85.60;;;;;;5053424;28;20218;-82
2021/03/24 07:40:04;;;;;;;83.60;51.23;;;7.20;84.70;;;;;;5056617;28;20175;-82
2021/03/24 07:43:07;;;;;;;90.33;51.30;;;7.30;84.80;;;;;;5039991;28;20179;-82
2021/03/24 07:46:02;;;;;;;86.13;50.30;;;7.30;85.10;;;;;;5057774;28;20213;-81
2021/03/24 07:48:53;;;;;;;80.73;46.73;;;7.50;85.40;;;;;;5056433;28;20178;-81
2021/03/24 07:51:51;;;;;;;75.33;44.27;;;7.50;84.70;;;;;;5057707;28;20262;-81
2021/03/24 07:54:44;;;;;;;78.53;45.27;;;7.60;84.80;;;;;;5057668;28;20182;-82
2021/03/24 07:57:17;;;;;;;91.57;53.10;;;7.60;85.00;;;;;;5039909;28;20618;-82
2021/03/24 08:00:13;;;;;;;87.67;53.97;;;7.70;84.70;;;;;;5039888;28;20191;-82
2021/03/24 08:02:58;;;;;;;90.40;52.77;;;7.70;84.30;;;;;;5054653;28;20244;-82
2021/03/24 08:05:51;;;;;;;83.23;48.60;;;7.80;84.20;;;;;;5039506;28;20172;-83
2021/03/24 08:08:45;;;;;;;84.07;46.20;;;7.80;84.10;;;;;;5039580;28;20197;-82
2021/03/24 08:11:38;;;;;;;84.73;48.57;;;7.90;84.40;;;;;;5057416;28;20205;-82
2021/03/24 08:14:26;;;;;;;97.10;52.27;;;7.90;84.50;;;;;;5020874;28;20317;-82
2021/03/24 08:17:04;;;;;;;85.00;47.70;;;7.90;84.40;;;;;;5057185;28;20207;-82
2021/03/24 08:19:35;;;;;;;90.70;51.63;;;8.00;83.60;;;;;;5057348;28;20166;-82
2021/03/24 08:22:36;;;;;;;87.07;52.40;;;8.00;83.20;;;;;;5057393;28;20175;-82
2021/03/24 08:25:26;;;;;;;78.73;43.53;;;8.10;84.10;;;;;;5039098;28;20263;-82
2021/03/24 08:28:29;;;;;;;84.27;52.93;;;8.20;83.70;;;;;;5057263;28;20203;-82
2021/03/24 08:31:36;;;;;;;86.73;50.30;;;8.30;83.60;;;;;;5038963;28;20180;-82
2021/03/24 08:34:23;;;;;;;87.70;54.03;;;8.40;82.80;;;;;;5055477;28;20574;-82
2021/03/24 08:37:02;;;;;;;82.53;47.50;;;8.50;82.80;;;;;;5056553;28;20208;-82
2021/03/24 08:39:35;;;;;;;91.00;53.67;;;8.50;82.00;;;;;;5056493;28;20168;-82
2021/03/24 08:42:37;;;;;;;78.93;48.33;;;8.60;82.70;;;;;;5056452;28;20176;-82
2021/03/24 08:45:26;;;;;;;85.57;53.47;;;8.70;82.50;;;;;;5055183;28;20163;-82
2021/03/24 08:48:05;;;;;;;78.73;48.03;;;8.80;83.00;;;;;;5056589;28;20172;-82
2021/03/24 08:50:39;;;;;;;88.10;53.83;;;8.80;81.60;;;;;;5055397;28;20180;-82
2021/03/24 08:53:44;;;;;;;77.17;44.07;;;8.80;81.80;;;;;;5056576;28;20229;-82
2021/03/24 08:56:27;;;;;;;85.70;49.57;;;8.90;80.90;;;;;;5056021;28;20192;-82
2021/03/24 08:59:31;;;;;;;74.37;42.10;;;8.90;81.10;;;;;;5056365;28;20179;-82
2021/03/24 09:02:28;;;;;;;74.40;42.97;;;9.10;80.60;;;;;;5038168;28;20168;-81
2021/03/24 09:05:17;;;;;;;69.00;40.87;;;9.20;79.90;;;;;;5056909;28;20171;-83
2021/03/24 09:07:55;;;;;;;84.43;50.20;;;9.30;79.60;;;;;;5056937;28;20650;-83
2021/03/24 09:11:00;;;;;;;42.27;23.50;;;9.30;79.90;;;;;;5039183;28;20644;-82
2021/03/24 09:13:43;;;;;;;73.83;46.67;;;9.30;78.50;;;;;;5057751;28;20172;-82
2021/03/24 09:16:27;;;;;;;64.33;35.97;;;9.40;79.70;;;;;;5056817;28;20203;-82
2021/03/24 09:19:33;;;;;;;83.27;51.23;;;9.30;79.30;;;;;;5057262;28;20168;-82
2021/03/24 09:22:19;;;;;;;81.50;51.13;;;9.70;79.70;;;;;;5056352;28;20183;-82
2021/03/24 09:25:11;;;;;;;76.87;48.33;;;9.80;79.80;;;;;;5057017;28;20598;-82
2021/03/24 09:28:14;;;;;;;83.97;52.30;;;9.80;77.80;;;;;;5057307;28;20184;-83
2021/03/24 09:31:09;;;;;;;66.23;40.87;;;9.90;79.30;;;;;;5058134;28;20160;-83
2021/03/24 09:33:58;;;;;;;60.73;36.07;;;9.90;78.20;;;;;;5056146;28;20156;-82
2021/03/24 09:36:54;;;;;;;75.03;43.53;;;9.90;76.90;;;;;;5055838;28;20263;-80
2021/03/24 09:39:35;;;;;;;73.67;44.87;;;10.00;77.90;;;;;;5056038;28;20152;-82
2021/03/24 09:42:08;;;;;;;75.53;48.47;;;9.80;77.60;;;;;;5055187;28;20174;-82
2021/03/24 09:44:47;;;;;;;74.33;46.60;;;9.80;76.80;;;;;;5055326;28;20169;-82
2021/03/24 09:47:43;;;;;;;64.53;37.63;;;10.10;77.70;;;;;;5037290;28;20200;-82
2021/03/24 09:50:45;;;;;;;48.83;30.67;;;10.00;76.70;;;;;;5055935;28;20164;-83
2021/03/24 09:53:25;;;;;;;65.83;43.73;;;10.10;75.70;;;;;;5055508;28;20169;-82
2021/03/24 09:56:06;;;;;;;70.77;46.13;;;10.10;75.90;;;;;;5055664;28;20204;-83
2021/03/24 09:58:57;;;;;;;60.80;39.33;;;10.30;75.80;;;;;;5037343;28;20675;-83
2021/03/24 10:01:38;;;;;;;68.67;44.00;;;10.50;74.50;;;;;;5054842;28;20543;-83
2021/03/24 10:04:19;;;;;;;65.37;43.13;;;10.70;74.60;;;;;;5055548;28;20239;-82
2021/03/24 10:06:54;;;;;;;66.07;43.33;;;10.60;74.70;;;;;;5055244;28;20687;-83
2021/03/24 10:09:37;;;;;;;66.67;43.43;;;10.80;75.30;;;;;;5055521;28;20170;-82
2021/03/24 10:12:24;;;;;;;72.60;45.67;;;10.70;74.50;;;;;;5055049;28;20167;-83
2021/03/24 10:15:34;;;;;;;73.57;43.47;;;10.60;74.90;;;;;;5055063;28;20192;-82
2021/03/24 10:18:26;;;;;;;72.30;47.20;;;10.60;73.90;;;;;;5050339;28;20219;-82
2021/03/24 10:20:59;;;;;;;70.73;46.90;;;10.60;74.20;;;;;;5055245;28;20170;-82
2021/03/24 10:23:34;;;;;;;73.00;48.43;;;10.50;73.70;;;;;;5056231;28;20628;-81
2021/03/24 10:26:18;;;;;;;70.87;48.43;;;10.70;74.10;;;;;;5038441;28;20192;-82
2021/03/24 10:29:13;;;;;;;70.47;46.83;;;10.70;73.90;;;;;;5038487;28;20179;-83
2021/03/24 10:31:41;;;;;;;68.07;45.47;;;11.00;73.70;;;;;;5056852;28;20616;-82
2021/03/24 10:34:21;;;;;;;70.53;46.20;;;11.30;73.50;;;;;;5056138;28;20176;-82
2021/03/24 10:37:02;;;;;;;71.57;47.77;;;11.50;73.20;;;;;;5054955;28;20255;-81
2021/03/24 10:39:42;;;;;;;62.27;42.87;;;11.50;72.40;;;;;;5055141;28;20199;-82
2021/03/24 10:42:23;;;;;;;65.97;45.23;;;11.20;70.00;;;;;;5055393;28;20198;-82
2021/03/24 10:44:55;;;;;;;68.33;43.50;;;11.20;72.10;;;;;;5054782;28;20620;-82
2021/03/24 10:47:40;;;;;;;56.93;41.13;;;11.30;70.60;;;;;;5036344;28;20676;-81
2021/03/24 10:50:29;;;;;;;60.97;40.30;;;11.20;70.30;;;;;;5054265;28;20599;-81
2021/03/24 10:52:59;;;;;;;63.43;41.10;;;11.20;70.30;;;;;;5053869;28;20200;-81
2021/03/24 10:55:30;;;;;;;53.13;35.57;;;11.30;71.00;;;;;;5054222;28;20667;-81
2021/03/24 10:58:36;;;;;;;59.30;43.83;;;11.30;70.40;;;;;;5053976;28;20653;-82
2021/03/24 11:01:18;;;;;;;65.23;42.43;;;11.40;69.40;;;;;;5053756;28;20168;-81
2021/03/24 11:03:50;;;;;;;61.10;41.83;;;11.30;68.70;;;;;;5053781;28;20651;-81
2021/03/24 11:06:34;;;;;;;71.07;47.37;;;11.30;69.30;;;;;;5053695;28;20191;-81
2021/03/24 11:09:06;;;;;;;70.63;48.47;;;11.30;69.60;;;;;;5053810;28;20176;-82
2021/03/24 11:11:40;;;;;;;74.47;47.27;;;11.40;70.20;;;;;;5053070;28;20682;-82
2021/03/24 11:14:21;;;;;;;69.77;46.90;;;11.60;69.30;;;;;;5053729;28;20171;-82
2021/03/24 11:17:04;;;;;;;67.13;46.37;;;12.10;67.60;;;;;;5053416;28;20225;-82
2021/03/24 11:19:47;;;;;;;65.10;43.83;;;12.20;67.10;;;;;;5052089;28;20171;-82
2021/03/24 11:22:21;;;;;;;65.37;45.90;;;12.40;66.40;;;;;;5053443;28;20179;-82
2021/03/24 11:25:22;;;;;;;66.57;45.17;;;12.30;65.90;;;;;;5053668;28;20159;-82
2021/03/24 11:28:07;;;;;;;60.47;41.37;;;12.20;66.20;;;;;;5053247;28;20538;-82
2021/03/24 11:30:41;;;;;;;65.03;46.30;;;12.50;63.80;;;;;;5053565;28;20199;-82
2021/03/24 11:33:39;;;;;;;63.20;45.43;;;12.60;64.20;;;;;;5053513;28;20250;-82
2021/03/24 11:36:16;;;;;;;58.77;43.07;;;12.70;63.90;;;;;;5053835;28;20243;-82
2021/03/24 11:39:02;;;;;;;63.07;45.40;;;12.50;62.40;;;;;;5053467;28;20187;-81
2021/03/24 11:41:36;;;;;;;67.33;44.43;;;12.00;65.20;;;;;;5053472;28;20180;-81
2021/03/24 11:44:09;;;;;;;65.23;44.90;;;11.90;66.40;;;;;;5053978;28;20644;-82
2021/03/24 11:46:45;;;;;;;62.67;46.97;;;12.00;65.80;;;;;;5053305;28;20192;-82
2021/03/24 11:49:44;;;;;;;65.47;46.47;;;12.00;66.70;;;;;;5053582;28;20639;-82
2021/03/24 11:52:34;;;;;;;65.60;45.50;;;12.20;65.20;;;;;;5053316;28;20172;-81
2021/03/24 11:55:41;;;;;;;62.23;42.57;;;12.00;65.90;;;;;;5053197;28;20200;-82
2021/03/24 11:58:34;;;;;;;67.73;43.57;;;12.20;65.70;;;;;;5053452;28;20216;-82
2021/03/24 12:01:24;;;;;;;54.30;37.53;;;12.30;67.50;;;;;;5053167;28;20643;-82
2021/03/24 12:03:53;;;;;;;61.40;38.83;;;12.50;66.10;;;;;;5053478;28;20251;-81
2021/03/24 12:06:43;;;;;;;52.87;35.53;;;12.90;64.30;;;;;;5035497;28;20670;-81
2021/03/24 12:09:24;;;;;;;67.03;39.67;;;13.10;64.10;;;;;;5053426;28;20233;-82
2021/03/24 12:12:03;;;;;;;59.33;40.43;;;12.70;63.90;;;;;;5053715;28;20182;-82
2021/03/24 12:14:31;;;;;;;55.67;38.17;;;12.40;64.40;;;;;;5053778;28;20554;-82
2021/03/24 12:17:02;;;;;;;58.77;35.70;;;12.10;66.30;;;;;;5077449;22;20239;-89
2021/03/24 12:19:45;;;;;;;63.17;38.77;;;12.30;66.20;;;;;;5054818;28;20176;-89
2021/03/24 12:22:29;;;;;;;64.37;41.53;;;12.30;64.10;;;;;;5072663;28;20538;-89
2021/03/24 12:25:19;;;;;;;69.37;42.90;;;12.50;64.20;;;;;;5058650;28;20270;-89
2021/03/24 12:27:54;;;;;;;70.90;46.47;;;12.50;65.00;;;;;;5076283;28;20195;-89
2021/03/24 12:30:44;;;;;;;70.57;49.13;;;12.40;64.30;;;;;;5058472;28;20232;-89
2021/03/24 12:33:24;;;;;;;71.80;49.10;;;12.60;65.10;;;;;;5058245;28;20436;-87
2021/03/24 12:36:12;;;;;;;65.90;48.43;;;12.90;64.80;;;;;;5058235;28;20187;-89
2021/03/24 12:38:47;;;;;;;77.87;48.33;;;13.00;63.90;;;;;;5058169;28;20788;-89
2021/03/24 12:41:24;;;;;;;69.10;46.73;;;13.20;64.10;;;;;;5058485;28;20171;-89
2021/03/24 12:43:50;;;;;;;54.00;33.60;;;13.20;62.20;;;;;;5058166;28;20269;-89
2021/03/24 12:46:23;;;;;;;61.87;38.27;;;13.00;63.20;;;;;;5076635;28;20170;-89
2021/03/24 12:48:59;;;;;;;66.83;44.20;;;12.90;62.90;;;;;;5075894;28;20184;-89
2021/03/24 12:51:34;;;;;;;61.90;41.40;;;12.90;62.60;;;;;;5058007;28;20680;-89
2021/03/24 12:54:08;;;;;;;71.93;47.27;;;12.50;62.10;;;;;;5075893;28;20171;-89
2021/03/24 12:57:00;;;;;;;67.83;47.50;;;12.80;64.60;;;;;;5057969;28;20175;-89
2021/03/24 12:59:58;;;;;;;63.23;39.83;;;13.10;63.00;;;;;;5057687;28;20191;-88
2021/03/24 13:02:47;;;;;;;69.40;47.00;;;13.10;62.40;;;;;;5075734;28;20186;-89
2021/03/24 13:05:31;;;;;;;64.77;40.93;;;13.00;63.70;;;;;;5074621;28;20172;-89
2021/03/24 13:08:24;;;;;;;70.87;47.30;;;13.00;62.90;;;;;;5057572;28;20286;-90
2021/03/24 13:11:04;;;;;;;67.73;47.23;;;13.10;63.60;;;;;;5057739;28;20167;-89
2021/03/24 13:14:00;;;;;;;76.67;51.30;;;13.20;64.00;;;;;;5058399;28;20589;-90
2021/03/24 13:16:57;;;;;;;67.43;46.37;;;13.60;63.70;;;;;;5075749;28;20506;-88
2021/03/24 13:19:51;;;;;;;73.67;47.97;;;13.90;61.60;;;;;;5057629;28;20202;-88
2021/03/24 13:22:44;;;;;;;69.27;49.10;;;13.90;61.40;;;;;;5074210;28;20167;-88
2021/03/24 13:25:52;;;;;;;69.00;45.37;;;13.80;61.00;;;;;;5057379;28;20232;-87
2021/03/24 13:28:32;;;;;;;68.50;43.73;;;14.20;60.30;;;;;;5056006;28;20203;-87
2021/03/24 13:31:04;;;;;;;69.73;46.73;;;14.30;58.20;;;;;;5057093;28;20603;-87
2021/03/24 13:33:43;;;;;;;67.10;46.33;;;14.00;59.50;;;;;;5057235;28;20602;-89
2021/03/24 13:36:23;;;;;;;66.70;44.93;;;14.30;57.70;;;;;;5074327;28;20596;-89
2021/03/24 13:39:03;;;;;;;66.37;45.80;;;13.80;59.70;;;;;;5057016;28;20207;-89
2021/03/24 13:41:44;;;;;;;78.07;48.70;;;13.70;60.60;;;;;;5057600;28;20603;-90
2021/03/24 13:44:41;;;;;;;68.77;45.47;;;13.90;60.50;;;;;;5074809;28;20651;-87
2021/03/24 13:47:27;;;;;;;65.33;46.10;;;13.80;60.30;;;;;;5056901;28;20203;-87
2021/03/24 13:50:21;;;;;;;60.03;37.80;;;14.10;59.70;;;;;;5056950;28;20175;-89